sensor_id;sensor_type;location;lat;lon;timestamp;temperature;humidity
15262;DHT22;7733;51.554;13.590;2023-06-14T00:00:58;15.00;98.00
15262;DHT22;7733;51.554;13.590;2023-06-14T00:03:24;15.00;98.20
15262;DHT22;7733;51.554;13.590;2023-06-14T00:05:51;15.00;98.50
15262;DHT22;7733;51.554;13.590;2023-06-14T00:08:17;15.00;98.70
15262;DHT22;7733;51.554;13.590;2023-06-14T00:10:44;14.90;98.90
15262;DHT22;7733;51.554;13.590;2023-06-14T00:13:10;14.90;98.90
15262;DHT22;7733;51.554;13.590;2023-06-14T00:15:37;15.00;99.10
15262;DHT22;7733;51.554;13.590;2023-06-14T00:18:04;15.00;99.30
15262;DHT22;7733;51.554;13.590;2023-06-14T00:20:31;15.00;99.20
15262;DHT22;7733;51.554;13.590;2023-06-14T00:23:01;14.90;99.50
15262;DHT22;7733;51.554;13.590;2023-06-14T00:25:28;14.80;99.90
15262;DHT22;7733;51.554;13.590;2023-06-14T00:27:54;14.90;99.90
15262;DHT22;7733;51.554;13.590;2023-06-14T00:30:21;14.90;99.90
15262;DHT22;7733;51.554;13.590;2023-06-14T00:32:47;14.90;99.90
15262;DHT22;7733;51.554;13.590;2023-06-14T00:35:13;14.70;99.90
15262;DHT22;7733;51.554;13.590;2023-06-14T00:37:40;14.80;99.90
15262;DHT22;7733;51.554;13.590;2023-06-14T00:40:07;14.80;99.90
15262;DHT22;7733;51.554;13.590;2023-06-14T00:42:33;14.90;99.90
15262;DHT22;7733;51.554;13.590;2023-06-14T00:44:59;14.70;99.90
15262;DHT22;7733;51.554;13.590;2023-06-14T00:47:26;14.70;99.90
15262;DHT22;7733;51.554;13.590;2023-06-14T00:49:53;14.80;99.90
15262;DHT22;7733;51.554;13.590;2023-06-14T00:52:21;14.80;99.90
15262;DHT22;7733;51.554;13.590;2023-06-14T00:54:49;14.70;99.90
15262;DHT22;7733;51.554;13.590;2023-06-14T00:57:15;14.80;99.90
15262;DHT22;7733;51.554;13.590;2023-06-14T00:59:46;14.70;99.90
15262;DHT22;7733;51.554;13.590;2023-06-14T01:02:13;14.60;99.90
15262;DHT22;7733;51.554;13.590;2023-06-14T01:04:46;14.60;99.90
15262;DHT22;7733;51.554;13.590;2023-06-14T01:15:51;14.40;99.90
15262;DHT22;7733;51.554;13.590;2023-06-14T01:18:18;14.50;99.90
15262;DHT22;7733;51.554;13.590;2023-06-14T01:20:45;14.40;99.90
15262;DHT22;7733;51.554;13.590;2023-06-14T01:23:16;14.20;99.90
15262;DHT22;7733;51.554;13.590;2023-06-14T01:25:43;14.10;99.90
15262;DHT22;7733;51.554;13.590;2023-06-14T01:28:10;14.10;99.90
15262;DHT22;7733;51.554;13.590;2023-06-14T01:30:41;14.10;99.90
15262;DHT22;7733;51.554;13.590;2023-06-14T01:33:12;14.10;99.90
15262;DHT22;7733;51.554;13.590;2023-06-14T01:35:50;14.20;99.90
15262;DHT22;7733;51.554;13.590;2023-06-14T01:38:19;14.20;99.90
15262;DHT22;7733;51.554;13.590;2023-06-14T01:40:48;14.00;99.90
15262;DHT22;7733;51.554;13.590;2023-06-14T01:43:16;14.00;99.90
15262;DHT22;7733;51.554;13.590;2023-06-14T01:45:44;14.00;99.90
15262;DHT22;7733;51.554;13.590;2023-06-14T01:48:12;14.00;99.90
15262;DHT22;7733;51.554;13.590;2023-06-14T01:50:39;13.90;99.90
15262;DHT22;7733;51.554;13.590;2023-06-14T01:53:09;13.70;99.90
15262;DHT22;7733;51.554;13.590;2023-06-14T01:55:35;13.80;99.90
15262;DHT22;7733;51.554;13.590;2023-06-14T01:58:04;13.80;99.90
15262;DHT22;7733;51.554;13.590;2023-06-14T02:00:30;13.80;99.90
15262;DHT22;7733;51.554;13.590;2023-06-14T02:02:56;13.80;99.90
15262;DHT22;7733;51.554;13.590;2023-06-14T02:05:22;13.60;99.90
15262;DHT22;7733;51.554;13.590;2023-06-14T02:07:49;13.60;99.90
15262;DHT22;7733;51.554;13.590;2023-06-14T02:10:15;13.60;99.90
15262;DHT22;7733;51.554;13.590;2023-06-14T02:12:43;13.70;99.90
15262;DHT22;7733;51.554;13.590;2023-06-14T02:15:09;13.70;99.90
15262;DHT22;7733;51.554;13.590;2023-06-14T02:17:43;13.70;99.90
15262;DHT22;7733;51.554;13.590;2023-06-14T02:20:09;13.70;99.90
15262;DHT22;7733;51.554;13.590;2023-06-14T02:22:36;13.70;99.90
15262;DHT22;7733;51.554;13.590;2023-06-14T02:25:02;13.50;99.90
15262;DHT22;7733;51.554;13.590;2023-06-14T02:27:28;13.40;99.90
15262;DHT22;7733;51.554;13.590;2023-06-14T02:29:53;13.60;99.90
15262;DHT22;7733;51.554;13.590;2023-06-14T02:32:19;13.40;99.90
15262;DHT22;7733;51.554;13.590;2023-06-14T02:34:45;13.40;99.90
15262;DHT22;7733;51.554;13.590;2023-06-14T02:37:15;13.30;99.90
15262;DHT22;7733;51.554;13.590;2023-06-14T02:39:42;13.40;99.90
15262;DHT22;7733;51.554;13.590;2023-06-14T02:42:07;13.40;99.90
15262;DHT22;7733;51.554;13.590;2023-06-14T02:44:33;13.40;99.90
15262;DHT22;7733;51.554;13.590;2023-06-14T02:46:59;13.20;99.90
15262;DHT22;7733;51.554;13.590;2023-06-14T02:49:26;13.20;99.90
15262;DHT22;7733;51.554;13.590;2023-06-14T02:51:52;13.10;99.90
15262;DHT22;7733;51.554;13.590;2023-06-14T02:54:17;13.20;99.90
15262;DHT22;7733;51.554;13.590;2023-06-14T02:56:43;13.10;99.90
15262;DHT22;7733;51.554;13.590;2023-06-14T02:59:09;12.90;99.90
15262;DHT22;7733;51.554;13.590;2023-06-14T03:01:35;12.80;99.90
15262;DHT22;7733;51.554;13.590;2023-06-14T03:04:04;12.80;99.90
15262;DHT22;7733;51.554;13.590;2023-06-14T03:06:30;13.00;99.90
15262;DHT22;7733;51.554;13.590;2023-06-14T03:08:57;12.80;99.90
15262;DHT22;7733;51.554;13.590;2023-06-14T03:11:29;12.70;99.90
15262;DHT22;7733;51.554;13.590;2023-06-14T03:13:56;12.90;99.90
15262;DHT22;7733;51.554;13.590;2023-06-14T03:16:22;12.90;99.90
15262;DHT22;7733;51.554;13.590;2023-06-14T03:18:52;13.00;99.90
15262;DHT22;7733;51.554;13.590;2023-06-14T03:21:19;12.80;99.90
15262;DHT22;7733;51.554;13.590;2023-06-14T03:23:48;12.80;99.90
15262;DHT22;7733;51.554;13.590;2023-06-14T03:26:15;12.70;99.90
15262;DHT22;7733;51.554;13.590;2023-06-14T03:28:47;12.80;99.90
15262;DHT22;7733;51.554;13.590;2023-06-14T03:31:13;12.60;99.90
15262;DHT22;7733;51.554;13.590;2023-06-14T03:33:40;12.90;99.90
15262;DHT22;7733;51.554;13.590;2023-06-14T03:36:06;12.90;99.90
15262;DHT22;7733;51.554;13.590;2023-06-14T03:38:32;12.70;99.90
15262;DHT22;7733;51.554;13.590;2023-06-14T03:40:58;12.70;99.90
15262;DHT22;7733;51.554;13.590;2023-06-14T03:43:24;12.80;99.90
15262;DHT22;7733;51.554;13.590;2023-06-14T03:45:50;12.90;99.90
15262;DHT22;7733;51.554;13.590;2023-06-14T03:48:16;12.80;99.90
15262;DHT22;7733;51.554;13.590;2023-06-14T03:50:42;12.80;99.90
15262;DHT22;7733;51.554;13.590;2023-06-14T03:53:08;12.90;99.90
15262;DHT22;7733;51.554;13.590;2023-06-14T03:55:34;12.90;99.90
15262;DHT22;7733;51.554;13.590;2023-06-14T03:58:00;12.80;99.90
15262;DHT22;7733;51.554;13.590;2023-06-14T04:00:26;12.90;99.90
15262;DHT22;7733;51.554;13.590;2023-06-14T04:02:52;13.00;99.90
15262;DHT22;7733;51.554;13.590;2023-06-14T04:05:19;13.00;99.90
15262;DHT22;7733;51.554;13.590;2023-06-14T04:07:47;12.80;99.90
15262;DHT22;7733;51.554;13.590;2023-06-14T04:10:15;12.90;99.90
15262;DHT22;7733;51.554;13.590;2023-06-14T04:12:41;12.90;99.90
15262;DHT22;7733;51.554;13.590;2023-06-14T04:15:08;12.80;99.90
15262;DHT22;7733;51.554;13.590;2023-06-14T04:17:35;13.00;99.90
15262;DHT22;7733;51.554;13.590;2023-06-14T04:20:03;13.10;99.90
15262;DHT22;7733;51.554;13.590;2023-06-14T04:22:34;13.00;99.90
15262;DHT22;7733;51.554;13.590;2023-06-14T04:25:01;13.00;99.90
15262;DHT22;7733;51.554;13.590;2023-06-14T04:27:28;13.00;99.90
15262;DHT22;7733;51.554;13.590;2023-06-14T04:29:56;13.10;99.90
15262;DHT22;7733;51.554;13.590;2023-06-14T04:32:26;13.00;99.90
15262;DHT22;7733;51.554;13.590;2023-06-14T04:34:55;13.00;99.90
15262;DHT22;7733;51.554;13.590;2023-06-14T04:37:22;13.10;99.90
15262;DHT22;7733;51.554;13.590;2023-06-14T04:39:49;13.20;99.90
15262;DHT22;7733;51.554;13.590;2023-06-14T04:42:15;13.40;99.90
15262;DHT22;7733;51.554;13.590;2023-06-14T04:44:42;13.50;99.90
15262;DHT22;7733;51.554;13.590;2023-06-14T04:47:09;13.50;99.90
15262;DHT22;7733;51.554;13.590;2023-06-14T04:49:38;13.70;99.90
15262;DHT22;7733;51.554;13.590;2023-06-14T04:52:05;13.80;99.90
15262;DHT22;7733;51.554;13.590;2023-06-14T04:54:31;13.90;99.90
15262;DHT22;7733;51.554;13.590;2023-06-14T04:56:58;14.00;99.90
15262;DHT22;7733;51.554;13.590;2023-06-14T04:59:24;13.90;99.90
15262;DHT22;7733;51.554;13.590;2023-06-14T05:01:50;13.90;99.90
15262;DHT22;7733;51.554;13.590;2023-06-14T05:04:17;13.90;99.90
15262;DHT22;7733;51.554;13.590;2023-06-14T05:06:44;14.00;99.90
15262;DHT22;7733;51.554;13.590;2023-06-14T05:09:14;14.00;99.90
15262;DHT22;7733;51.554;13.590;2023-06-14T05:11:41;14.30;99.90
15262;DHT22;7733;51.554;13.590;2023-06-14T05:14:10;14.40;99.90
15262;DHT22;7733;51.554;13.590;2023-06-14T05:16:36;14.40;99.90
15262;DHT22;7733;51.554;13.590;2023-06-14T05:19:03;14.50;99.90
15262;DHT22;7733;51.554;13.590;2023-06-14T05:21:30;14.60;99.90
15262;DHT22;7733;51.554;13.590;2023-06-14T05:23:57;14.70;99.90
15262;DHT22;7733;51.554;13.590;2023-06-14T05:26:23;14.80;99.90
15262;DHT22;7733;51.554;13.590;2023-06-14T05:28:50;14.80;99.90
15262;DHT22;7733;51.554;13.590;2023-06-14T05:31:18;14.80;99.90
15262;DHT22;7733;51.554;13.590;2023-06-14T05:33:43;15.00;99.90
15262;DHT22;7733;51.554;13.590;2023-06-14T05:36:09;15.10;99.90
15262;DHT22;7733;51.554;13.590;2023-06-14T05:38:35;15.00;99.90
15262;DHT22;7733;51.554;13.590;2023-06-14T05:41:00;15.20;99.90
15262;DHT22;7733;51.554;13.590;2023-06-14T05:43:26;15.30;99.90
15262;DHT22;7733;51.554;13.590;2023-06-14T05:45:52;15.30;99.90
15262;DHT22;7733;51.554;13.590;2023-06-14T05:48:18;15.30;99.90
15262;DHT22;7733;51.554;13.590;2023-06-14T05:50:43;15.50;99.90
15262;DHT22;7733;51.554;13.590;2023-06-14T05:53:09;15.70;99.90
15262;DHT22;7733;51.554;13.590;2023-06-14T05:55:35;15.80;99.90
15262;DHT22;7733;51.554;13.590;2023-06-14T05:58:01;15.70;99.90
15262;DHT22;7733;51.554;13.590;2023-06-14T06:00:27;15.70;99.90
15262;DHT22;7733;51.554;13.590;2023-06-14T06:02:53;15.80;99.90
15262;DHT22;7733;51.554;13.590;2023-06-14T06:05:18;15.90;99.90
15262;DHT22;7733;51.554;13.590;2023-06-14T06:07:44;15.90;99.90
15262;DHT22;7733;51.554;13.590;2023-06-14T06:10:11;16.10;99.90
15262;DHT22;7733;51.554;13.590;2023-06-14T06:12:37;16.10;99.90
15262;DHT22;7733;51.554;13.590;2023-06-14T06:15:03;16.00;99.90
15262;DHT22;7733;51.554;13.590;2023-06-14T06:17:29;16.10;99.90
15262;DHT22;7733;51.554;13.590;2023-06-14T06:19:55;16.10;99.90
15262;DHT22;7733;51.554;13.590;2023-06-14T06:22:21;16.30;99.90
15262;DHT22;7733;51.554;13.590;2023-06-14T06:24:47;16.40;99.90
15262;DHT22;7733;51.554;13.590;2023-06-14T06:27:12;16.60;99.90
15262;DHT22;7733;51.554;13.590;2023-06-14T06:29:38;16.60;99.90
15262;DHT22;7733;51.554;13.590;2023-06-14T06:32:05;16.50;99.90
15262;DHT22;7733;51.554;13.590;2023-06-14T06:34:31;16.80;99.90
15262;DHT22;7733;51.554;13.590;2023-06-14T06:36:56;16.80;99.90
15262;DHT22;7733;51.554;13.590;2023-06-14T06:39:22;16.90;99.90
15262;DHT22;7733;51.554;13.590;2023-06-14T06:41:48;17.00;99.90
15262;DHT22;7733;51.554;13.590;2023-06-14T06:44:13;17.20;99.90
15262;DHT22;7733;51.554;13.590;2023-06-14T06:46:39;17.20;99.90
15262;DHT22;7733;51.554;13.590;2023-06-14T06:49:07;17.20;99.90
15262;DHT22;7733;51.554;13.590;2023-06-14T06:51:33;17.20;99.90
15262;DHT22;7733;51.554;13.590;2023-06-14T06:54:00;17.20;99.90
15262;DHT22;7733;51.554;13.590;2023-06-14T06:56:25;17.20;99.90
15262;DHT22;7733;51.554;13.590;2023-06-14T06:58:52;17.30;99.90
15262;DHT22;7733;51.554;13.590;2023-06-14T07:01:18;17.40;99.90
15262;DHT22;7733;51.554;13.590;2023-06-14T07:03:46;17.40;99.90
15262;DHT22;7733;51.554;13.590;2023-06-14T07:06:12;17.50;99.90
15262;DHT22;7733;51.554;13.590;2023-06-14T07:08:38;17.50;99.90
15262;DHT22;7733;51.554;13.590;2023-06-14T07:11:04;17.70;99.90
15262;DHT22;7733;51.554;13.590;2023-06-14T07:13:31;17.80;99.90
15262;DHT22;7733;51.554;13.590;2023-06-14T07:16:00;17.70;99.90
15262;DHT22;7733;51.554;13.590;2023-06-14T07:18:26;17.80;99.90
15262;DHT22;7733;51.554;13.590;2023-06-14T07:20:53;17.80;99.90
15262;DHT22;7733;51.554;13.590;2023-06-14T07:23:20;17.70;99.90
15262;DHT22;7733;51.554;13.590;2023-06-14T07:25:46;17.70;99.90
15262;DHT22;7733;51.554;13.590;2023-06-14T07:28:12;17.60;99.90
15262;DHT22;7733;51.554;13.590;2023-06-14T07:30:38;17.60;99.90
15262;DHT22;7733;51.554;13.590;2023-06-14T07:33:03;17.70;99.80
15262;DHT22;7733;51.554;13.590;2023-06-14T07:35:29;17.60;99.70
15262;DHT22;7733;51.554;13.590;2023-06-14T07:37:55;17.60;99.70
15262;DHT22;7733;51.554;13.590;2023-06-14T07:40:21;17.80;99.50
15262;DHT22;7733;51.554;13.590;2023-06-14T07:42:47;17.90;98.70
15262;DHT22;7733;51.554;13.590;2023-06-14T07:45:16;17.80;98.30
15262;DHT22;7733;51.554;13.590;2023-06-14T07:47:42;17.60;98.40
15262;DHT22;7733;51.554;13.590;2023-06-14T07:50:08;17.50;98.50
15262;DHT22;7733;51.554;13.590;2023-06-14T07:52:34;17.60;98.30
15262;DHT22;7733;51.554;13.590;2023-06-14T07:55:00;17.60;98.60
15262;DHT22;7733;51.554;13.590;2023-06-14T07:57:26;17.80;98.60
15262;DHT22;7733;51.554;13.590;2023-06-14T07:59:52;17.70;98.50
15262;DHT22;7733;51.554;13.590;2023-06-14T08:02:18;17.70;98.10
15262;DHT22;7733;51.554;13.590;2023-06-14T08:04:44;17.50;98.10
15262;DHT22;7733;51.554;13.590;2023-06-14T08:07:09;17.60;98.30
15262;DHT22;7733;51.554;13.590;2023-06-14T08:09:35;17.70;98.40
15262;DHT22;7733;51.554;13.590;2023-06-14T08:12:04;17.80;98.50
15262;DHT22;7733;51.554;13.590;2023-06-14T08:14:33;17.90;98.20
15262;DHT22;7733;51.554;13.590;2023-06-14T08:16:59;17.90;98.20
15262;DHT22;7733;51.554;13.590;2023-06-14T08:19:25;18.00;98.20
15262;DHT22;7733;51.554;13.590;2023-06-14T08:21:51;18.30;98.20
15262;DHT22;7733;51.554;13.590;2023-06-14T08:24:16;18.50;98.00
15262;DHT22;7733;51.554;13.590;2023-06-14T08:26:44;18.70;97.40
15262;DHT22;7733;51.554;13.590;2023-06-14T08:29:09;18.80;97.10
15262;DHT22;7733;51.554;13.590;2023-06-14T08:31:35;18.80;96.90
15262;DHT22;7733;51.554;13.590;2023-06-14T08:34:01;18.80;96.10
15262;DHT22;7733;51.554;13.590;2023-06-14T08:36:27;18.90;96.30
15262;DHT22;7733;51.554;13.590;2023-06-14T08:38:53;18.90;95.40
15262;DHT22;7733;51.554;13.590;2023-06-14T08:41:21;19.30;95.00
15262;DHT22;7733;51.554;13.590;2023-06-14T08:43:52;19.60;93.80
15262;DHT22;7733;51.554;13.590;2023-06-14T08:46:19;19.70;92.80
15262;DHT22;7733;51.554;13.590;2023-06-14T08:48:51;19.60;92.40
15262;DHT22;7733;51.554;13.590;2023-06-14T08:51:19;19.60;92.40
15262;DHT22;7733;51.554;13.590;2023-06-14T08:53:50;19.70;92.50
15262;DHT22;7733;51.554;13.590;2023-06-14T08:56:18;19.70;92.50
15262;DHT22;7733;51.554;13.590;2023-06-14T08:58:46;19.70;92.80
15262;DHT22;7733;51.554;13.590;2023-06-14T09:01:14;19.90;92.50
15262;DHT22;7733;51.554;13.590;2023-06-14T09:03:43;19.80;92.70
15262;DHT22;7733;51.554;13.590;2023-06-14T09:06:10;19.80;92.80
15262;DHT22;7733;51.554;13.590;2023-06-14T09:08:46;20.00;92.70
15262;DHT22;7733;51.554;13.590;2023-06-14T09:11:17;20.00;92.60
15262;DHT22;7733;51.554;13.590;2023-06-14T09:13:45;20.10;92.50
15262;DHT22;7733;51.554;13.590;2023-06-14T09:16:12;20.10;92.50
15262;DHT22;7733;51.554;13.590;2023-06-14T09:18:39;20.10;93.00
15262;DHT22;7733;51.554;13.590;2023-06-14T09:21:15;20.20;93.40
15262;DHT22;7733;51.554;13.590;2023-06-14T09:23:44;20.20;93.10
15262;DHT22;7733;51.554;13.590;2023-06-14T09:26:14;20.30;93.20
15262;DHT22;7733;51.554;13.590;2023-06-14T09:28:47;20.50;93.10
15262;DHT22;7733;51.554;13.590;2023-06-14T09:31:18;20.90;93.40
15262;DHT22;7733;51.554;13.590;2023-06-14T09:33:47;21.20;92.80
15262;DHT22;7733;51.554;13.590;2023-06-14T09:36:21;21.80;92.50
15262;DHT22;7733;51.554;13.590;2023-06-14T09:38:57;21.90;91.40
15262;DHT22;7733;51.554;13.590;2023-06-14T09:41:37;22.00;91.00
15262;DHT22;7733;51.554;13.590;2023-06-14T09:44:06;21.70;91.10
15262;DHT22;7733;51.554;13.590;2023-06-14T09:46:35;21.50;91.20
15262;DHT22;7733;51.554;13.590;2023-06-14T09:49:02;21.30;91.70
15262;DHT22;7733;51.554;13.590;2023-06-14T09:51:31;21.10;91.90
15262;DHT22;7733;51.554;13.590;2023-06-14T09:54:01;20.70;92.90
15262;DHT22;7733;51.554;13.590;2023-06-14T09:56:38;20.60;93.10
15262;DHT22;7733;51.554;13.590;2023-06-14T09:59:09;20.40;93.40
15262;DHT22;7733;51.554;13.590;2023-06-14T10:01:40;20.20;93.70
15262;DHT22;7733;51.554;13.590;2023-06-14T10:04:09;20.10;93.80
15262;DHT22;7733;51.554;13.590;2023-06-14T10:06:37;20.20;93.70
15262;DHT22;7733;51.554;13.590;2023-06-14T10:09:08;20.00;93.90
15262;DHT22;7733;51.554;13.590;2023-06-14T10:11:36;20.00;94.20
15262;DHT22;7733;51.554;13.590;2023-06-14T10:14:04;20.00;94.40
15262;DHT22;7733;51.554;13.590;2023-06-14T10:16:36;20.20;94.00
15262;DHT22;7733;51.554;13.590;2023-06-14T10:19:37;20.50;93.80
15262;DHT22;7733;51.554;13.590;2023-06-14T10:22:17;20.60;93.30
15262;DHT22;7733;51.554;13.590;2023-06-14T10:24:48;20.50;92.90
15262;DHT22;7733;51.554;13.590;2023-06-14T10:27:16;20.60;93.00
15262;DHT22;7733;51.554;13.590;2023-06-14T10:32:25;20.90;92.30
15262;DHT22;7733;51.554;13.590;2023-06-14T10:34:59;20.80;93.00
15262;DHT22;7733;51.554;13.590;2023-06-14T10:37:26;20.90;92.80
15262;DHT22;7733;51.554;13.590;2023-06-14T10:39:53;20.70;92.60
15262;DHT22;7733;51.554;13.590;2023-06-14T10:42:19;20.80;93.00
15262;DHT22;7733;51.554;13.590;2023-06-14T10:44:50;20.70;92.70
15262;DHT22;7733;51.554;13.590;2023-06-14T10:50:16;21.30;92.40
15262;DHT22;7733;51.554;13.590;2023-06-14T10:52:44;21.50;92.00
15262;DHT22;7733;51.554;13.590;2023-06-14T10:55:17;21.40;92.00
15262;DHT22;7733;51.554;13.590;2023-06-14T10:57:46;21.30;91.90
15262;DHT22;7733;51.554;13.590;2023-06-14T11:00:15;21.20;91.90
15262;DHT22;7733;51.554;13.590;2023-06-14T11:11:36;20.80;92.50
15262;DHT22;7733;51.554;13.590;2023-06-14T11:14:04;20.30;93.40
15262;DHT22;7733;51.554;13.590;2023-06-14T11:16:30;20.30;93.80
15262;DHT22;7733;51.554;13.590;2023-06-14T11:19:00;20.30;94.10
15262;DHT22;7733;51.554;13.590;2023-06-14T11:21:28;20.60;93.90
15262;DHT22;7733;51.554;13.590;2023-06-14T11:23:56;20.50;93.50
15262;DHT22;7733;51.554;13.590;2023-06-14T11:29:00;20.60;93.70
15262;DHT22;7733;51.554;13.590;2023-06-14T11:31:27;20.60;93.30
15262;DHT22;7733;51.554;13.590;2023-06-14T11:33:55;20.50;93.10
15262;DHT22;7733;51.554;13.590;2023-06-14T11:36:29;20.40;93.20
15262;DHT22;7733;51.554;13.590;2023-06-14T11:39:03;20.50;93.10
15262;DHT22;7733;51.554;13.590;2023-06-14T11:44:06;20.90;92.60
15262;DHT22;7733;51.554;13.590;2023-06-14T11:46:33;20.90;92.40
15262;DHT22;7733;51.554;13.590;2023-06-14T11:48:59;21.00;92.30
15262;DHT22;7733;51.554;13.590;2023-06-14T11:51:34;21.20;92.40
15262;DHT22;7733;51.554;13.590;2023-06-14T11:54:02;21.20;92.30
15262;DHT22;7733;51.554;13.590;2023-06-14T11:56:31;21.30;92.00
15262;DHT22;7733;51.554;13.590;2023-06-14T11:58:57;21.50;91.10
15262;DHT22;7733;51.554;13.590;2023-06-14T12:01:23;21.30;91.00
15262;DHT22;7733;51.554;13.590;2023-06-14T12:03:53;21.20;90.80
15262;DHT22;7733;51.554;13.590;2023-06-14T12:06:30;21.20;91.10
15262;DHT22;7733;51.554;13.590;2023-06-14T12:09:04;21.10;91.20
15262;DHT22;7733;51.554;13.590;2023-06-14T12:11:38;21.20;91.30
15262;DHT22;7733;51.554;13.590;2023-06-14T12:14:04;21.20;91.20
15262;DHT22;7733;51.554;13.590;2023-06-14T12:16:35;21.20;91.40
15262;DHT22;7733;51.554;13.590;2023-06-14T12:19:29;21.50;91.10
15262;DHT22;7733;51.554;13.590;2023-06-14T12:21:59;21.30;91.10
15262;DHT22;7733;51.554;13.590;2023-06-14T12:24:30;21.20;91.40
15262;DHT22;7733;51.554;13.590;2023-06-14T12:26:58;21.10;91.80
15262;DHT22;7733;51.554;13.590;2023-06-14T12:29:28;21.10;91.80
15262;DHT22;7733;51.554;13.590;2023-06-14T12:31:55;21.00;91.90
15262;DHT22;7733;51.554;13.590;2023-06-14T12:34:23;21.00;92.10
15262;DHT22;7733;51.554;13.590;2023-06-14T12:36:53;21.10;92.00
15262;DHT22;7733;51.554;13.590;2023-06-14T12:39:20;21.20;92.20
15262;DHT22;7733;51.554;13.590;2023-06-14T12:41:46;21.10;92.00
15262;DHT22;7733;51.554;13.590;2023-06-14T12:44:13;21.30;91.90
15262;DHT22;7733;51.554;13.590;2023-06-14T12:46:40;21.50;91.90
15262;DHT22;7733;51.554;13.590;2023-06-14T12:49:12;21.50;91.60
15262;DHT22;7733;51.554;13.590;2023-06-14T12:51:39;22.10;91.20
15262;DHT22;7733;51.554;13.590;2023-06-14T12:54:06;22.40;90.60
15262;DHT22;7733;51.554;13.590;2023-06-14T12:56:32;22.80;89.90
15262;DHT22;7733;51.554;13.590;2023-06-14T12:58:58;23.00;88.60
15262;DHT22;7733;51.554;13.590;2023-06-14T13:01:24;22.90;88.30
15262;DHT22;7733;51.554;13.590;2023-06-14T13:03:50;22.80;88.20
15262;DHT22;7733;51.554;13.590;2023-06-14T13:06:20;23.00;87.60
15262;DHT22;7733;51.554;13.590;2023-06-14T13:08:48;22.90;87.90
15262;DHT22;7733;51.554;13.590;2023-06-14T13:11:14;23.10;87.20
15262;DHT22;7733;51.554;13.590;2023-06-14T13:13:40;23.30;86.40
15262;DHT22;7733;51.554;13.590;2023-06-14T13:16:06;23.30;86.50
15262;DHT22;7733;51.554;13.590;2023-06-14T13:18:31;23.90;86.60
15262;DHT22;7733;51.554;13.590;2023-06-14T13:20:57;23.80;85.80
15262;DHT22;7733;51.554;13.590;2023-06-14T13:23:23;23.80;84.90
15262;DHT22;7733;51.554;13.590;2023-06-14T13:25:49;24.10;84.60
15262;DHT22;7733;51.554;13.590;2023-06-14T13:28:17;24.40;83.00
15262;DHT22;7733;51.554;13.590;2023-06-14T13:30:43;24.30;83.00
15262;DHT22;7733;51.554;13.590;2023-06-14T13:33:09;24.30;83.30
15262;DHT22;7733;51.554;13.590;2023-06-14T13:35:35;24.70;80.90
15262;DHT22;7733;51.554;13.590;2023-06-14T13:38:01;24.60;79.50
15262;DHT22;7733;51.554;13.590;2023-06-14T13:40:26;24.10;81.20
15262;DHT22;7733;51.554;13.590;2023-06-14T13:42:52;24.00;81.10
15262;DHT22;7733;51.554;13.590;2023-06-14T13:45:18;24.10;81.40
15262;DHT22;7733;51.554;13.590;2023-06-14T13:47:43;24.30;81.00
15262;DHT22;7733;51.554;13.590;2023-06-14T13:50:10;24.80;78.80
15262;DHT22;7733;51.554;13.590;2023-06-14T13:52:35;24.60;78.30
15262;DHT22;7733;51.554;13.590;2023-06-14T13:55:02;24.20;78.90
15262;DHT22;7733;51.554;13.590;2023-06-14T13:57:28;24.10;79.30
15262;DHT22;7733;51.554;13.590;2023-06-14T13:59:53;23.60;80.40
15262;DHT22;7733;51.554;13.590;2023-06-14T14:02:21;23.30;80.90
15262;DHT22;7733;51.554;13.590;2023-06-14T14:04:46;23.20;81.60
15262;DHT22;7733;51.554;13.590;2023-06-14T14:07:18;23.40;81.80
15262;DHT22;7733;51.554;13.590;2023-06-14T14:09:44;23.50;82.00
15262;DHT22;7733;51.554;13.590;2023-06-14T14:12:10;23.20;83.40
15262;DHT22;7733;51.554;13.590;2023-06-14T14:14:36;23.50;83.00
15262;DHT22;7733;51.554;13.590;2023-06-14T14:17:02;23.30;83.20
15262;DHT22;7733;51.554;13.590;2023-06-14T14:19:29;23.60;82.00
15262;DHT22;7733;51.554;13.590;2023-06-14T14:21:55;23.90;81.60
15262;DHT22;7733;51.554;13.590;2023-06-14T14:24:20;24.20;80.40
15262;DHT22;7733;51.554;13.590;2023-06-14T14:26:46;24.20;80.20
15262;DHT22;7733;51.554;13.590;2023-06-14T14:29:16;24.30;78.70
15262;DHT22;7733;51.554;13.590;2023-06-14T14:31:42;24.30;77.20
15262;DHT22;7733;51.554;13.590;2023-06-14T14:34:08;24.50;75.90
15262;DHT22;7733;51.554;13.590;2023-06-14T14:36:33;24.50;76.10
15262;DHT22;7733;51.554;13.590;2023-06-14T14:39:06;24.70;76.90
15262;DHT22;7733;51.554;13.590;2023-06-14T14:41:32;24.90;76.30
15262;DHT22;7733;51.554;13.590;2023-06-14T14:43:58;25.10;73.90
15262;DHT22;7733;51.554;13.590;2023-06-14T14:46:26;24.90;72.40
15262;DHT22;7733;51.554;13.590;2023-06-14T14:48:53;24.80;71.80
15262;DHT22;7733;51.554;13.590;2023-06-14T14:51:18;24.70;72.50
15262;DHT22;7733;51.554;13.590;2023-06-14T14:53:44;24.50;72.30
15262;DHT22;7733;51.554;13.590;2023-06-14T14:56:10;24.40;72.70
15262;DHT22;7733;51.554;13.590;2023-06-14T14:58:37;24.50;72.30
15262;DHT22;7733;51.554;13.590;2023-06-14T15:01:03;24.50;73.30
15262;DHT22;7733;51.554;13.590;2023-06-14T15:03:31;23.90;75.90
15262;DHT22;7733;51.554;13.590;2023-06-14T15:05:57;23.90;76.60
15262;DHT22;7733;51.554;13.590;2023-06-14T15:08:22;23.90;76.20
15262;DHT22;7733;51.554;13.590;2023-06-14T15:10:48;23.80;75.50
15262;DHT22;7733;51.554;13.590;2023-06-14T15:13:14;23.90;75.50
15262;DHT22;7733;51.554;13.590;2023-06-14T15:15:40;23.70;74.90
15262;DHT22;7733;51.554;13.590;2023-06-14T15:18:06;23.80;74.40
15262;DHT22;7733;51.554;13.590;2023-06-14T15:20:32;24.00;74.70
15262;DHT22;7733;51.554;13.590;2023-06-14T15:22:57;24.10;75.00
15262;DHT22;7733;51.554;13.590;2023-06-14T15:25:31;24.50;73.90
15262;DHT22;7733;51.554;13.590;2023-06-14T15:27:58;24.30;73.30
15262;DHT22;7733;51.554;13.590;2023-06-14T15:30:24;24.30;72.90
15262;DHT22;7733;51.554;13.590;2023-06-14T15:32:49;24.30;73.20
15262;DHT22;7733;51.554;13.590;2023-06-14T15:35:17;24.00;73.50
15262;DHT22;7733;51.554;13.590;2023-06-14T15:37:47;23.80;72.90
15262;DHT22;7733;51.554;13.590;2023-06-14T15:40:13;23.50;73.20
15262;DHT22;7733;51.554;13.590;2023-06-14T15:42:40;23.60;73.60
15262;DHT22;7733;51.554;13.590;2023-06-14T15:45:06;23.70;74.10
15262;DHT22;7733;51.554;13.590;2023-06-14T15:47:32;23.50;73.80
15262;DHT22;7733;51.554;13.590;2023-06-14T15:49:57;23.50;74.50
15262;DHT22;7733;51.554;13.590;2023-06-14T15:52:23;23.20;75.10
15262;DHT22;7733;51.554;13.590;2023-06-14T15:54:49;22.90;77.50
15262;DHT22;7733;51.554;13.590;2023-06-14T15:57:14;22.60;82.20
15262;DHT22;7733;51.554;13.590;2023-06-14T15:59:40;22.20;84.00